Time;durP1;ratioP1;P1;durP2;ratioP2;P2;SDS_P1;SDS_P2;PMS_P1;PMS_P2;Temp;Humidity;BMP_temperature;BMP_pressure;BME280_temperature;BME280_humidity;BME280_pressure;Samples;Min_cycle;Max_cycle;Signal;HPM_P1;HPM_P2
2023/03/24 00:02:05;;;;;;;4.80;1.83;;;15.30;91.30;;;;;;4950362;28;20046;-80
2023/03/24 00:04:32;;;;;;;2.58;1.30;;;15.30;91.70;;;;;;4966170;28;20027;-80
2023/03/24 00:07:00;;;;;;;3.35;1.50;;;15.20;92.10;;;;;;4966983;28;20404;-79
2023/03/24 00:09:28;;;;;;;2.42;1.65;;;15.20;92.30;;;;;;4959906;28;20439;-80
2023/03/24 00:11:55;;;;;;;1.38;1.20;;;15.20;92.30;;;;;;4966691;28;20046;-80
2023/03/24 00:14:22;;;;;;;3.80;1.77;;;15.20;92.60;;;;;;4949936;28;20110;-81
2023/03/24 00:16:48;;;;;;;1.63;1.23;;;15.20;93.00;;;;;;4962196;28;20037;-81
2023/03/24 00:19:15;;;;;;;3.80;1.70;;;15.10;93.10;;;;;;4961381;28;20019;-80
2023/03/24 00:21:42;;;;;;;3.30;1.73;;;15.10;93.30;;;;;;4964783;28;20030;-80
2023/03/24 00:24:10;;;;;;;3.35;1.60;;;15.10;93.50;;;;;;4964449;28;20019;-79
2023/03/24 00:26:37;;;;;;;3.95;1.83;;;15.10;93.30;;;;;;4963343;28;20488;-80
2023/03/24 00:29:04;;;;;;;4.18;1.88;;;15.00;93.10;;;;;;4963392;28;20038;-80
2023/03/24 00:31:30;;;;;;;3.38;1.50;;;15.00;92.80;;;;;;4946680;28;20344;-80
2023/03/24 00:33:56;;;;;;;2.75;1.52;;;15.00;92.60;;;;;;4965212;28;20095;-80
2023/03/24 00:36:24;;;;;;;2.97;1.75;;;14.90;92.60;;;;;;4968059;28;20022;-79
2023/03/24 00:38:51;;;;;;;2.22;1.60;;;14.90;92.40;;;;;;4962692;28;20463;-80
2023/03/24 00:41:18;;;;;;;7.13;1.63;;;14.90;92.30;;;;;;4948652;28;20050;-79
2023/03/24 00:43:45;;;;;;;3.38;1.75;;;14.90;92.10;;;;;;4964675;28;20066;-79
2023/03/24 00:46:27;;;;;;;2.28;1.40;;;14.90;92.10;;;;;;4946655;28;20035;-79
2023/03/24 00:49:04;;;;;;;9.00;1.67;;;14.90;91.90;;;;;;4965293;28;20446;-80
2023/03/24 00:51:38;;;;;;;4.20;1.73;;;14.80;91.80;;;;;;4966141;28;20133;-79
2023/03/24 00:54:05;;;;;;;2.38;1.38;;;14.90;91.80;;;;;;4966412;28;20042;-79
2023/03/24 00:56:34;;;;;;;3.00;2.05;;;14.80;91.70;;;;;;4967105;28;20164;-80
2023/03/24 00:59:00;;;;;;;3.53;1.65;;;14.80;91.70;;;;;;4962360;28;20791;-80
2023/03/24 01:01:35;;;;;;;4.55;1.80;;;14.80;91.80;;;;;;4960706;28;20039;-80
2023/03/24 01:04:01;;;;;;;2.70;1.70;;;14.80;91.80;;;;;;4966749;28;20424;-80
2023/03/24 01:06:27;;;;;;;3.92;1.40;;;14.80;91.80;;;;;;4961399;28;20994;-80
2023/03/24 01:08:53;;;;;;;4.63;1.60;;;14.80;91.70;;;;;;4961275;28;20105;-80
2023/03/24 01:11:24;;;;;;;3.10;1.60;;;14.80;91.70;;;;;;4966799;28;20023;-80
2023/03/24 01:13:52;;;;;;;2.15;1.40;;;14.80;91.70;;;;;;4959819;28;20034;-80
2023/03/24 01:16:18;;;;;;;2.17;1.40;;;14.80;91.60;;;;;;4959867;28;20027;-80
2023/03/24 01:18:44;;;;;;;2.85;1.85;;;14.80;91.70;;;;;;4960890;28;20419;-80
2023/03/24 01:21:11;;;;;;;3.30;1.52;;;14.80;91.80;;;;;;4966850;28;20073;-80
2023/03/24 01:23:38;;;;;;;2.22;1.58;;;14.70;91.70;;;;;;4946424;28;24420;-79
2023/03/24 01:26:06;;;;;;;2.63;1.55;;;14.80;91.80;;;;;;4960661;28;20161;-80
2023/03/24 01:28:38;;;;;;;5.22;1.50;;;14.80;91.60;;;;;;4963223;28;20031;-80
2023/03/24 01:31:04;;;;;;;2.65;1.77;;;14.80;91.60;;;;;;4964662;28;20039;-80
2023/03/24 01:33:30;;;;;;;3.20;1.20;;;14.70;91.60;;;;;;4965754;28;20066;-83
2023/03/24 01:35:56;;;;;;;4.15;1.83;;;14.80;91.60;;;;;;4962817;28;20496;-79
2023/03/24 01:38:21;;;;;;;2.42;1.23;;;14.80;91.60;;;;;;4961614;28;20574;-79
2023/03/24 01:40:47;;;;;;;4.00;1.50;;;14.80;91.60;;;;;;4961736;28;20081;-79
2023/03/24 01:43:29;;;;;;;3.55;1.60;;;14.80;91.50;;;;;;4966486;28;20066;-78
2023/03/24 01:46:16;;;;;;;4.75;1.60;;;14.80;91.50;;;;;;4961271;28;20038;-79
2023/03/24 01:49:06;;;;;;;2.72;1.40;;;14.80;91.50;;;;;;4964691;28;20026;-78
2023/03/24 01:51:36;;;;;;;2.17;1.20;;;14.80;91.50;;;;;;4961545;28;20035;-78
2023/03/24 01:54:21;;;;;;;4.20;1.75;;;14.80;91.50;;;;;;4964542;28;20022;-78
2023/03/24 01:57:00;;;;;;;2.30;1.40;;;14.80;91.40;;;;;;4961094;28;20034;-78
2023/03/24 01:59:30;;;;;;;3.05;1.23;;;14.80;91.40;;;;;;4957890;28;20039;-78
2023/03/24 02:02:02;;;;;;;2.47;1.30;;;14.80;91.30;;;;;;4960691;28;20054;-78
2023/03/24 02:04:52;;;;;;;3.28;1.40;;;14.90;91.20;;;;;;4959731;28;20042;-78
2023/03/24 02:07:21;;;;;;;2.88;1.60;;;14.80;91.10;;;;;;4963951;28;20057;-78
2023/03/24 02:09:47;;;;;;;2.50;1.40;;;14.80;91.10;;;;;;4959572;28;20034;-78
2023/03/24 02:12:13;;;;;;;2.45;1.20;;;14.90;91.00;;;;;;4965537;28;20074;-77
2023/03/24 02:14:39;;;;;;;2.25;1.10;;;14.90;90.80;;;;;;4952710;28;20035;-77
2023/03/24 02:17:43;;;;;;;2.50;1.77;;;14.90;91.20;;;;;;4961067;28;20023;-77
2023/03/24 02:20:38;;;;;;;1.98;1.17;;;14.90;90.90;;;;;;4929422;28;20511;-77
2023/03/24 02:23:37;;;;;;;3.42;1.42;;;15.00;91.00;;;;;;4964998;28;20030;-77
2023/03/24 02:26:31;;;;;;;4.47;1.70;;;15.00;91.00;;;;;;4967534;28;20027;-77
2023/03/24 02:29:12;;;;;;;2.90;1.52;;;15.00;91.00;;;;;;4962479;28;20031;-77
2023/03/24 02:32:05;;;;;;;2.75;1.40;;;14.90;91.10;;;;;;4946976;28;20027;-77
2023/03/24 02:35:00;;;;;;;2.60;1.45;;;14.90;91.10;;;;;;4948074;28;20046;-77
2023/03/24 02:37:26;;;;;;;;;;;14.90;91.10;;;;;;4956106;28;20061;-76
2023/03/24 02:40:16;;;;;;;2.92;1.67;;;14.90;91.40;;;;;;4959832;28;20005;-77
2023/03/24 02:43:09;;;;;;;2.85;1.58;;;14.90;91.50;;;;;;4964120;28;20022;-77
2023/03/24 02:45:39;;;;;;;2.17;1.42;;;14.90;91.30;;;;;;4965069;28;20098;-77
2023/03/24 02:48:22;;;;;;;2.90;1.60;;;14.80;91.30;;;;;;4968890;28;20015;-78
2023/03/24 02:50:50;;;;;;;4.43;1.42;;;14.80;91.40;;;;;;4962684;28;20696;-79
2023/03/24 02:53:28;;;;;;;2.95;1.60;;;14.80;91.40;;;;;;4958813;28;20062;-79
2023/03/24 02:56:04;;;;;;;5.55;1.52;;;14.80;91.50;;;;;;4963000;28;20027;-77
2023/03/24 02:58:44;;;;;;;5.88;1.73;;;14.80;91.50;;;;;;4964684;28;20041;-77
2023/03/24 03:01:53;;;;;;;3.95;1.70;;;14.70;91.50;;;;;;4964311;28;20074;-78
2023/03/24 03:04:44;;;;;;;3.67;1.80;;;14.70;91.50;;;;;;4966472;28;20027;-78
2023/03/24 03:07:15;;;;;;;3.03;1.50;;;14.80;91.50;;;;;;4963108;28;20044;-78
2023/03/24 03:09:48;;;;;;;3.30;1.42;;;14.80;91.50;;;;;;4961149;28;20065;-77
2023/03/24 03:12:18;;;;;;;9.40;2.37;;;14.80;91.50;;;;;;4959739;28;20037;-78
2023/03/24 03:14:50;;;;;;;3.65;1.70;;;14.70;91.60;;;;;;4964987;28;20022;-77
2023/03/24 03:17:19;;;;;;;11.02;1.80;;;14.70;91.60;;;;;;4969687;28;20031;-77
2023/03/24 03:20:05;;;;;;;3.78;2.08;;;14.80;91.60;;;;;;4947036;28;20018;-77
2023/03/24 03:22:38;;;;;;;5.70;1.88;;;14.70;91.60;;;;;;4969476;28;20109;-77
2023/03/24 03:25:05;;;;;;;1.83;1.17;;;14.70;91.70;;;;;;4967840;28;20050;-76
2023/03/24 03:27:37;;;;;;;2.05;1.40;;;14.70;91.70;;;;;;4953232;28;20098;-77
2023/03/24 03:30:17;;;;;;;4.53;1.70;;;14.60;91.70;;;;;;4966085;28;20029;-78
2023/03/24 03:32:53;;;;;;;3.85;1.50;;;14.60;91.70;;;;;;4968340;28;20041;-78
2023/03/24 03:35:29;;;;;;;3.70;1.70;;;14.60;91.70;;;;;;4968851;28;20058;-78
2023/03/24 03:37:59;;;;;;;3.42;1.63;;;14.60;91.70;;;;;;4970590;28;20523;-77
2023/03/24 03:40:50;;;;;;;2.25;1.40;;;14.70;91.60;;;;;;4965337;28;20339;-78
2023/03/24 03:45:54;;;;;;;3.33;1.35;;;14.80;91.30;;;;;;4990124;23;20054;-80
2023/03/24 03:48:21;;;;;;;7.13;1.15;;;14.80;91.20;;;;;;4972585;28;20035;-79
2023/03/24 03:50:47;;;;;;;4.78;1.30;;;14.80;91.20;;;;;;4967718;28;20038;-79
2023/03/24 03:53:16;;;;;;;2.65;1.10;;;14.80;90.90;;;;;;4968781;28;20121;-79
2023/03/24 03:55:43;;;;;;;3.20;1.48;;;14.90;90.80;;;;;;4969959;28;20460;-79
2023/03/24 03:58:08;;;;;;;3.58;1.42;;;15.00;90.60;;;;;;4966376;28;20022;-79
2023/03/24 04:00:35;;;;;;;2.10;1.25;;;15.00;90.60;;;;;;4966479;28;20039;-79
2023/03/24 04:03:36;;;;;;;4.25;1.35;;;15.00;90.60;;;;;;4956716;28;20042;-79
2023/03/24 04:06:24;;;;;;;1.88;0.90;;;15.10;90.30;;;;;;4969165;28;20537;-80
2023/03/24 04:08:51;;;;;;;3.67;1.00;;;15.20;90.20;;;;;;4937255;28;20061;-80
2023/03/24 04:11:40;;;;;;;3.45;1.33;;;15.20;90.30;;;;;;4966824;28;20026;-77
2023/03/24 04:14:40;;;;;;;2.20;1.00;;;15.30;91.20;;;;;;4956205;28;20418;-79
2023/03/24 04:17:33;;;;;;;1.65;0.95;;;15.30;91.30;;;;;;4964817;28;20038;-79
2023/03/24 04:20:14;;;;;;;1.48;1.10;;;15.40;91.10;;;;;;4962742;28;20030;-79
2023/03/24 04:22:55;;;;;;;1.20;0.93;;;15.40;90.70;;;;;;4965295;28;20058;-79
2023/03/24 04:25:41;;;;;;;1.65;0.90;;;15.40;90.60;;;;;;4966551;28;20033;-79
2023/03/24 04:28:32;;;;;;;4.20;1.00;;;15.40;90.60;;;;;;4967683;28;20019;-79
2023/03/24 04:31:22;;;;;;;1.58;0.95;;;15.40;90.60;;;;;;4968564;28;20030;-79
2023/03/24 04:34:02;;;;;;;1.75;0.70;;;15.40;90.60;;;;;;4967194;28;20042;-79
2023/03/24 04:36:41;;;;;;;0.93;0.73;;;15.40;90.40;;;;;;4964013;28;20026;-78
2023/03/24 04:39:18;;;;;;;1.27;0.80;;;15.50;90.40;;;;;;4966383;28;20106;-79
2023/03/24 04:41:46;;;;;;;1.90;0.82;;;15.50;90.40;;;;;;4966588;28;20530;-77
2023/03/24 04:44:16;;;;;;;1.35;0.85;;;15.50;90.30;;;;;;4961928;28;20034;-78
2023/03/24 04:46:42;;;;;;;2.45;0.63;;;15.50;90.30;;;;;;4960372;28;20026;-79
2023/03/24 04:49:11;;;;;;;2.03;0.82;;;15.60;90.30;;;;;;4961175;28;20377;-79
2023/03/24 04:51:37;;;;;;;2.85;0.80;;;15.60;90.30;;;;;;4965464;28;20483;-78
2023/03/24 04:54:02;;;;;;;1.83;0.80;;;15.60;90.30;;;;;;4944504;28;20035;-79
2023/03/24 04:56:33;;;;;;;2.50;0.90;;;15.60;90.30;;;;;;4967448;28;20046;-79
2023/03/24 04:58:58;;;;;;;4.22;0.95;;;15.60;90.50;;;;;;4965378;28;20065;-78
2023/03/24 05:01:29;;;;;;;1.40;0.90;;;15.60;90.80;;;;;;4965927;28;20058;-79
2023/03/24 05:03:56;;;;;;;1.13;0.68;;;15.60;90.80;;;;;;4968186;28;20039;-78
2023/03/24 05:06:21;;;;;;;2.83;1.40;;;15.60;90.80;;;;;;4961059;28;20519;-79
2023/03/24 05:08:47;;;;;;;2.00;0.60;;;15.60;90.90;;;;;;4960753;28;20063;-78
2023/03/24 05:11:13;;;;;;;2.15;0.70;;;15.60;90.50;;;;;;4960800;28;20033;-78
2023/03/24 05:13:39;;;;;;;1.02;0.90;;;15.70;90.30;;;;;;4966927;28;20026;-78
2023/03/24 05:16:05;;;;;;;1.42;0.70;;;15.70;90.30;;;;;;4944098;28;20444;-78
2023/03/24 05:18:30;;;;;;;1.10;0.85;;;15.80;90.20;;;;;;4948586;28;20093;-78
2023/03/24 05:20:56;;;;;;;2.65;0.95;;;15.90;90.30;;;;;;4962426;28;20035;-78
2023/03/24 05:23:22;;;;;;;4.85;1.63;;;15.80;90.20;;;;;;4960876;28;20027;-77
2023/03/24 05:25:47;;;;;;;2.72;0.82;;;15.90;90.30;;;;;;4965234;28;20039;-78
2023/03/24 05:28:13;;;;;;;1.17;0.90;;;15.90;91.60;;;;;;4956470;28;20035;-78
2023/03/24 05:30:39;;;;;;;1.77;0.88;;;15.80;93.30;;;;;;4969453;28;20395;-78
2023/03/24 05:33:05;;;;;;;1.45;0.80;;;15.70;93.40;;;;;;4944393;28;20023;-78
2023/03/24 05:35:30;;;;;;;1.75;1.15;;;15.70;94.00;;;;;;4965484;28;20022;-78
2023/03/24 05:37:56;;;;;;;6.38;1.70;;;15.50;94.40;;;;;;4967949;28;20042;-78
2023/03/24 05:40:22;;;;;;;1.80;1.00;;;15.40;94.90;;;;;;4963020;28;20027;-78
2023/03/24 05:42:50;;;;;;;1.38;0.95;;;15.20;95.40;;;;;;4961514;28;20098;-77
2023/03/24 05:45:17;;;;;;;3.50;1.40;;;15.20;95.80;;;;;;4963364;28;20436;-77
2023/03/24 05:47:42;;;;;;;3.53;1.50;;;15.00;96.80;;;;;;4972801;28;20035;-78
2023/03/24 05:50:08;;;;;;;2.10;1.48;;;14.90;97.90;;;;;;4960054;28;20035;-78
2023/03/24 05:52:35;;;;;;;3.75;1.90;;;14.80;98.50;;;;;;4960999;28;20106;-78
2023/03/24 05:55:01;;;;;;;4.95;1.60;;;14.70;99.00;;;;;;4965301;28;20019;-78
2023/03/24 05:57:29;;;;;;;4.32;1.83;;;14.60;99.60;;;;;;4960514;28;20030;-78
2023/03/24 05:59:56;;;;;;;3.63;1.70;;;14.50;99.90;;;;;;4962554;28;20026;-78
2023/03/24 06:02:23;;;;;;;6.10;1.88;;;14.50;99.90;;;;;;4969093;28;20053;-77
2023/03/24 06:04:50;;;;;;;4.22;1.65;;;14.40;99.90;;;;;;4956090;28;20022;-77
2023/03/24 06:07:16;;;;;;;5.60;2.20;;;14.30;99.90;;;;;;4960927;28;20088;-78
2023/03/24 06:09:45;;;;;;;6.88;1.95;;;14.30;99.90;;;;;;4943628;28;20038;-78
2023/03/24 06:12:12;;;;;;;2.72;1.63;;;14.30;99.90;;;;;;4961880;28;20038;-78
2023/03/24 06:14:39;;;;;;;213.55;30.73;;;14.30;99.90;;;;;;4961943;28;20038;-78
2023/03/24 06:17:07;;;;;;;17.00;4.72;;;14.30;99.90;;;;;;4963978;28;20014;-82
2023/03/24 06:19:33;;;;;;;3.60;1.88;;;14.20;99.90;;;;;;4945363;28;20139;-83
2023/03/24 06:22:01;;;;;;;2.88;1.75;;;14.20;99.90;;;;;;4965161;28;20126;-81
2023/03/24 06:24:28;;;;;;;4.00;1.73;;;14.30;99.90;;;;;;4961486;28;20039;-78
2023/03/24 06:27:00;;;;;;;5.43;1.92;;;14.30;99.90;;;;;;4958125;28;20063;-78
2023/03/24 06:29:28;;;;;;;4.63;1.70;;;14.30;99.90;;;;;;4961219;28;20031;-79
2023/03/24 06:31:53;;;;;;;3.75;1.48;;;14.30;99.90;;;;;;4964376;28;20117;-78
2023/03/24 06:34:21;;;;;;;2.40;1.65;;;14.20;99.90;;;;;;4963017;28;20077;-77
2023/03/24 06:36:47;;;;;;;3.10;1.50;;;14.20;99.90;;;;;;4943975;28;20089;-78
2023/03/24 06:39:12;;;;;;;4.68;1.75;;;14.20;99.90;;;;;;4961849;28;20549;-78
2023/03/24 06:41:38;;;;;;;3.03;1.73;;;14.10;99.90;;;;;;4965005;28;20051;-78
2023/03/24 06:44:04;;;;;;;3.28;1.92;;;14.10;99.90;;;;;;4962512;28;20031;-79
2023/03/24 06:46:30;;;;;;;10.65;2.05;;;14.10;99.90;;;;;;4961616;28;20050;-79
2023/03/24 06:48:56;;;;;;;3.40;1.77;;;14.00;99.90;;;;;;4964005;28;20034;-79
2023/03/24 06:51:21;;;;;;;2.47;1.70;;;14.00;99.90;;;;;;4963694;28;20038;-79
2023/03/24 06:53:47;;;;;;;4.88;2.47;;;14.00;99.90;;;;;;4967108;28;20444;-78
2023/03/24 06:56:18;;;;;;;4.10;2.03;;;14.00;99.90;;;;;;4970893;28;20031;-79
2023/03/24 06:58:44;;;;;;;2.63;1.30;;;14.00;99.90;;;;;;4966785;28;20109;-79
2023/03/24 07:01:10;;;;;;;2.22;1.60;;;14.00;99.90;;;;;;4962378;28;20208;-78
2023/03/24 07:03:37;;;;;;;2.90;1.63;;;14.00;99.90;;;;;;4965452;28;20459;-78
2023/03/24 07:06:04;;;;;;;2.40;1.50;;;14.00;99.90;;;;;;4962941;28;20483;-78
2023/03/24 07:08:31;;;;;;;4.30;1.92;;;14.00;99.90;;;;;;4964931;28;20474;-79
2023/03/24 07:10:57;;;;;;;3.05;1.63;;;14.00;99.90;;;;;;4965778;28;20480;-79
2023/03/24 07:13:22;;;;;;;2.75;1.90;;;14.00;99.90;;;;;;4966328;28;20026;-78
2023/03/24 07:15:48;;;;;;;1.90;1.38;;;14.00;99.90;;;;;;4946237;28;20020;-79
2023/03/24 07:18:13;;;;;;;9.05;2.10;;;14.00;99.90;;;;;;4959326;28;20037;-79
2023/03/24 07:20:40;;;;;;;2.97;1.65;;;14.00;99.90;;;;;;4966471;28;20031;-79
2023/03/24 07:23:05;;;;;;;3.63;1.90;;;14.00;99.90;;;;;;4970366;28;20365;-78
2023/03/24 07:25:32;;;;;;;4.55;1.88;;;13.90;99.90;;;;;;4912636;28;20118;-77
2023/03/24 07:27:57;;;;;;;3.08;1.63;;;13.90;99.90;;;;;;4975419;28;20026;-77
2023/03/24 07:30:24;;;;;;;3.03;2.03;;;13.90;99.90;;;;;;4969650;28;20034;-77
2023/03/24 07:32:50;;;;;;;3.80;1.98;;;13.80;99.90;;;;;;4969932;28;20387;-77
2023/03/24 07:35:16;;;;;;;5.68;2.15;;;13.80;99.90;;;;;;4970709;28;20022;-77
2023/03/24 07:37:42;;;;;;;4.35;2.25;;;13.80;99.90;;;;;;4966728;28;20031;-77
2023/03/24 07:40:13;;;;;;;3.53;2.20;;;13.80;99.90;;;;;;4967369;28;20034;-77
2023/03/24 07:42:41;;;;;;;6.05;2.30;;;13.80;99.90;;;;;;4963031;28;20074;-77
2023/03/24 07:45:09;;;;;;;4.43;3.05;;;13.80;99.90;;;;;;4966300;28;20023;-77
2023/03/24 07:47:36;;;;;;;4.57;2.30;;;13.80;99.90;;;;;;4976631;28;20042;-77
2023/03/24 07:50:03;;;;;;;5.32;2.65;;;13.70;99.90;;;;;;4964515;28;20602;-77
2023/03/24 07:52:29;;;;;;;3.05;2.38;;;13.80;99.90;;;;;;4969908;28;20023;-77
2023/03/24 07:54:55;;;;;;;4.90;2.80;;;13.80;99.90;;;;;;4968661;28;20038;-77
2023/03/24 07:57:22;;;;;;;4.82;2.85;;;13.80;99.90;;;;;;4968149;28;20041;-77
2023/03/24 07:59:47;;;;;;;3.80;2.70;;;13.80;99.90;;;;;;4969835;28;20034;-76
2023/03/24 08:02:17;;;;;;;6.55;3.22;;;13.80;99.90;;;;;;4964136;28;20399;-77
2023/03/24 08:04:43;;;;;;;6.97;2.80;;;13.80;99.90;;;;;;4967150;28;20034;-77
2023/03/24 08:07:11;;;;;;;4.82;3.08;;;13.80;99.90;;;;;;4964699;28;20027;-77
2023/03/24 08:09:38;;;;;;;6.07;2.50;;;13.90;99.90;;;;;;4960670;28;20503;-77
2023/03/24 08:12:04;;;;;;;5.97;2.45;;;13.90;99.90;;;;;;4966101;28;20035;-77
2023/03/24 08:14:29;;;;;;;5.57;2.63;;;13.80;99.90;;;;;;4969297;28;20037;-77
2023/03/24 08:16:55;;;;;;;4.72;3.03;;;13.80;99.90;;;;;;4981323;28;20019;-77
2023/03/24 08:19:21;;;;;;;5.15;3.22;;;13.80;99.90;;;;;;4979828;28;20031;-77
2023/03/24 08:21:47;;;;;;;5.53;3.03;;;13.90;99.90;;;;;;4980667;28;20075;-77
2023/03/24 08:24:12;;;;;;;6.80;2.78;;;13.90;99.90;;;;;;4970623;28;20121;-77
2023/03/24 08:26:38;;;;;;;7.65;3.22;;;13.90;99.90;;;;;;4963690;28;20035;-77
2023/03/24 08:29:04;;;;;;;5.40;2.78;;;13.90;99.90;;;;;;4962472;28;20484;-77
2023/03/24 08:31:35;;;;;;;3.80;2.70;;;13.90;99.90;;;;;;4964303;28;20070;-77
2023/03/24 08:34:01;;;;;;;4.80;2.78;;;13.90;99.90;;;;;;4957055;28;20038;-77
2023/03/24 08:36:27;;;;;;;4.30;2.75;;;13.90;99.90;;;;;;4962560;28;20023;-77
2023/03/24 08:38:54;;;;;;;5.30;2.15;;;13.90;99.90;;;;;;4961290;28;20034;-77
2023/03/24 08:41:21;;;;;;;4.28;2.30;;;13.90;99.90;;;;;;4953369;28;21207;-77
2023/03/24 08:43:47;;;;;;;3.75;2.25;;;13.90;99.90;;;;;;4962985;28;20480;-77
2023/03/24 08:46:14;;;;;;;4.75;2.85;;;13.80;99.90;;;;;;4961065;28;20035;-77
2023/03/24 08:48:40;;;;;;;2.90;2.05;;;13.70;99.90;;;;;;4965552;28;20026;-76
2023/03/24 08:51:11;;;;;;;5.75;2.50;;;13.80;99.90;;;;;;4962787;28;20041;-77
2023/03/24 08:53:36;;;;;;;3.83;2.00;;;13.70;99.90;;;;;;4962710;28;20418;-77
2023/03/24 08:56:02;;;;;;;4.55;1.83;;;13.70;99.90;;;;;;4968141;28;20209;-77
2023/03/24 08:58:28;;;;;;;2.83;1.75;;;13.60;99.90;;;;;;4961025;28;20113;-77
2023/03/24 09:00:53;;;;;;;2.63;1.48;;;13.50;99.90;;;;;;4962802;28;20054;-77
2023/03/24 09:03:21;;;;;;;2.63;1.45;;;13.50;99.90;;;;;;4952968;28;20031;-77
2023/03/24 09:05:47;;;;;;;1.55;1.13;;;13.50;99.90;;;;;;4967115;28;20039;-77
2023/03/24 09:08:15;;;;;;;2.58;1.17;;;13.50;99.90;;;;;;4962533;28;20500;-77
2023/03/24 09:10:42;;;;;;;1.67;1.00;;;13.60;99.90;;;;;;4953730;28;20105;-77
2023/03/24 09:13:07;;;;;;;2.53;0.90;;;13.60;99.90;;;;;;4962167;28;20093;-77
2023/03/24 09:15:33;;;;;;;2.55;0.80;;;13.70;99.90;;;;;;4962537;28;20041;-77
2023/03/24 09:18:00;;;;;;;0.77;0.73;;;13.70;99.90;;;;;;4961023;28;20539;-77
2023/03/24 09:20:26;;;;;;;1.35;0.90;;;13.70;99.90;;;;;;4958565;28;20040;-77
2023/03/24 09:22:52;;;;;;;1.27;0.75;;;13.80;99.90;;;;;;4957752;28;20039;-77
2023/03/24 09:25:19;;;;;;;1.55;1.08;;;13.80;99.90;;;;;;4963963;28;20037;-77
2023/03/24 09:27:46;;;;;;;1.38;0.70;;;13.90;99.90;;;;;;4965984;28;20283;-77
2023/03/24 09:30:16;;;;;;;0.98;0.80;;;14.00;99.90;;;;;;4968439;28;20030;-77
2023/03/24 09:32:43;;;;;;;0.90;0.65;;;14.10;99.90;;;;;;4951364;28;20031;-77
2023/03/24 09:35:09;;;;;;;1.45;0.75;;;14.20;99.90;;;;;;4966113;28;20027;-77
2023/03/24 09:37:36;;;;;;;0.95;0.70;;;14.30;99.90;;;;;;4961085;28;20050;-77
2023/03/24 09:40:06;;;;;;;2.67;0.82;;;14.40;99.90;;;;;;4953537;28;20031;-77
2023/03/24 09:42:36;;;;;;;2.10;0.60;;;14.50;99.90;;;;;;4958386;28;20030;-77
2023/03/24 09:45:18;;;;;;;1.67;0.80;;;14.50;99.90;;;;;;4988773;23;20042;-76
2023/03/24 09:47:48;;;;;;;1.50;0.77;;;14.60;99.90;;;;;;4992763;28;20117;-81
2023/03/24 09:50:23;;;;;;;1.10;0.60;;;14.70;99.90;;;;;;4993901;28;20097;-78
2023/03/24 09:52:52;;;;;;;2.20;0.73;;;14.80;99.90;;;;;;4992513;28;20030;-76
2023/03/24 09:55:28;;;;;;;0.70;0.50;;;14.90;99.90;;;;;;4991181;28;20038;-76
2023/03/24 09:58:03;;;;;;;0.68;0.38;;;14.90;99.90;;;;;;4990887;28;20038;-77
2023/03/24 10:00:33;;;;;;;1.13;0.60;;;15.00;99.90;;;;;;5035107;23;20064;-75
2023/03/24 10:03:11;;;;;;;0.70;0.50;;;15.00;99.90;;;;;;5027037;28;20040;-78
2023/03/24 10:05:41;;;;;;;1.55;0.52;;;15.10;99.90;;;;;;5027899;28;20025;-74
2023/03/24 10:08:16;;;;;;;1.55;0.90;;;15.30;99.90;;;;;;5032902;28;20044;-73
2023/03/24 10:11:03;;;;;;;1.23;0.70;;;15.30;99.90;;;;;;5012301;28;20026;-74
2023/03/24 10:14:10;;;;;;;1.13;0.63;;;15.50;99.90;;;;;;4994528;28;20040;-76
2023/03/24 10:16:48;;;;;;;1.00;0.70;;;15.50;99.90;;;;;;5000380;28;20186;-75
2023/03/24 10:19:25;;;;;;;1.10;0.70;;;15.60;99.90;;;;;;5009697;28;20490;-75
2023/03/24 10:22:10;;;;;;;1.17;0.63;;;15.70;99.90;;;;;;5002014;28;20080;-75
2023/03/24 10:24:50;;;;;;;1.45;0.60;;;15.80;99.90;;;;;;5007403;28;20513;-75
2023/03/24 10:27:19;;;;;;;0.90;0.50;;;15.90;99.90;;;;;;5012506;28;20519;-75
2023/03/24 10:29:48;;;;;;;0.55;0.50;;;16.10;99.90;;;;;;5012021;28;20109;-75
2023/03/24 10:32:15;;;;;;;1.88;0.50;;;16.20;99.90;;;;;;5008948;28;20038;-74
2023/03/24 10:34:43;;;;;;;1.02;0.50;;;16.30;99.90;;;;;;5011693;28;20032;-75
2023/03/24 10:37:12;;;;;;;1.42;0.60;;;16.30;99.90;;;;;;5004030;28;20429;-76
2023/03/24 10:39:39;;;;;;;0.90;0.50;;;16.30;99.90;;;;;;5012036;28;20030;-75
2023/03/24 10:42:05;;;;;;;0.82;0.50;;;16.30;99.90;;;;;;5005433;28;20035;-73
2023/03/24 10:44:31;;;;;;;1.67;0.63;;;16.40;99.90;;;;;;5012134;28;20038;-75
2023/03/24 10:47:01;;;;;;;1.25;0.80;;;16.40;99.90;;;;;;5013536;28;20053;-75
2023/03/24 10:49:27;;;;;;;0.57;0.47;;;16.40;99.90;;;;;;5008305;28;20031;-75
2023/03/24 10:52:02;;;;;;;0.93;0.63;;;16.40;99.90;;;;;;5007474;28;20026;-74
2023/03/24 10:54:29;;;;;;;0.95;0.60;;;16.40;99.90;;;;;;5014302;28;20064;-74
2023/03/24 10:56:59;;;;;;;1.27;0.68;;;16.40;99.90;;;;;;4997209;28;20045;-75
2023/03/24 10:59:55;;;;;;;1.05;0.82;;;16.40;99.90;;;;;;5010010;28;20032;-75
2023/03/24 11:02:28;;;;;;;1.27;0.77;;;16.40;99.90;;;;;;5010480;28;20053;-75
2023/03/24 11:04:54;;;;;;;3.80;0.90;;;16.50;99.90;;;;;;4992404;28;20040;-75
2023/03/24 11:07:21;;;;;;;0.82;0.52;;;16.50;99.90;;;;;;5005442;28;20354;-75
2023/03/24 11:10:03;;;;;;;0.95;0.40;;;16.40;99.90;;;;;;5007114;28;20026;-75
2023/03/24 11:12:32;;;;;;;0.68;0.50;;;16.40;99.90;;;;;;5010697;28;20446;-75
2023/03/24 11:15:13;;;;;;;1.20;0.63;;;16.30;99.90;;;;;;5012055;28;20474;-74
2023/03/24 11:17:41;;;;;;;2.10;0.82;;;16.30;99.90;;;;;;5006492;28;20030;-75
2023/03/24 11:20:17;;;;;;;3.03;0.93;;;16.30;99.90;;;;;;4988795;28;20022;-75
2023/03/24 11:23:05;;;;;;;1.35;0.70;;;16.30;99.90;;;;;;5006085;28;20025;-75
2023/03/24 11:25:35;;;;;;;1.20;0.80;;;16.30;99.90;;;;;;5009691;28;20054;-75
2023/03/24 11:28:13;;;;;;;0.90;0.55;;;16.40;99.90;;;;;;5012878;28;20378;-75
2023/03/24 11:30:50;;;;;;;1.75;0.50;;;16.40;99.90;;;;;;5001397;28;20061;-75
2023/03/24 11:33:32;;;;;;;1.52;0.57;;;16.50;99.90;;;;;;5002521;28;20018;-73
2023/03/24 11:36:19;;;;;;;1.33;0.60;;;16.60;99.90;;;;;;4996441;28;20026;-75
2023/03/24 11:39:03;;;;;;;0.85;0.55;;;16.60;99.90;;;;;;4958115;28;20033;-75
2023/03/24 11:41:29;;;;;;;0.82;0.50;;;16.70;99.90;;;;;;5014560;28;20026;-75
2023/03/24 11:44:22;;;;;;;1.25;0.50;;;16.80;99.90;;;;;;5011057;28;20045;-75
2023/03/24 11:47:10;;;;;;;2.25;0.70;;;16.80;99.90;;;;;;4985670;28;20045;-75
2023/03/24 11:49:41;;;;;;;0.68;0.47;;;16.80;99.90;;;;;;5013915;28;20057;-75
2023/03/24 11:52:26;;;;;;;2.20;0.65;;;16.70;99.90;;;;;;4998443;28;20079;-75
2023/03/24 11:54:52;;;;;;;0.73;0.45;;;16.70;99.90;;;;;;4997074;28;20497;-74
2023/03/24 11:57:39;;;;;;;0.35;0.35;;;16.70;99.90;;;;;;5014861;28;20018;-75
2023/03/24 12:00:15;;;;;;;1.67;0.30;;;16.70;99.90;;;;;;4990874;28;20204;-75
2023/03/24 12:02:55;;;;;;;1.63;0.35;;;16.70;99.90;;;;;;4983261;28;20505;-74
2023/03/24 12:05:57;;;;;;;1.65;0.40;;;16.60;99.90;;;;;;5009565;28;20014;-73
2023/03/24 12:08:40;;;;;;;0.50;0.30;;;16.50;99.90;;;;;;5014452;28;20022;-75
2023/03/24 12:11:34;;;;;;;1.88;0.55;;;16.40;99.90;;;;;;5010128;28;20104;-75
2023/03/24 12:14:03;;;;;;;0.80;0.32;;;16.40;99.90;;;;;;4984377;28;20558;-75
2023/03/24 12:16:52;;;;;;;1.80;0.60;;;16.30;99.90;;;;;;5014255;28;20014;-75
2023/03/24 12:19:32;;;;;;;0.90;0.50;;;16.20;99.90;;;;;;4993665;28;20105;-74
2023/03/24 12:22:09;;;;;;;1.58;0.40;;;16.20;99.90;;;;;;4992123;28;20042;-75
2023/03/24 12:24:53;;;;;;;0.35;0.20;;;16.20;99.90;;;;;;4990324;28;20052;-75
2023/03/24 12:27:41;;;;;;;1.65;0.60;;;16.10;99.90;;;;;;5006768;28;20030;-74
2023/03/24 12:30:42;;;;;;;2.90;0.50;;;16.10;99.90;;;;;;5010370;28;20425;-74
2023/03/24 12:33:16;;;;;;;0.70;0.50;;;16.10;99.90;;;;;;4993741;28;20438;-74
2023/03/24 12:36:01;;;;;;;0.32;0.20;;;16.10;99.90;;;;;;5000304;28;20386;-74
2023/03/24 12:38:32;;;;;;;0.73;0.40;;;16.00;99.90;;;;;;5007194;28;20109;-75
2023/03/24 12:41:12;;;;;;;2.78;0.50;;;16.00;99.90;;;;;;5013116;28;20044;-75
2023/03/24 12:44:13;;;;;;;0.77;0.40;;;16.00;99.90;;;;;;5003904;28;20041;-75
2023/03/24 12:47:16;;;;;;;0.60;0.40;;;16.00;99.90;;;;;;5010664;28;20393;-74
2023/03/24 12:49:53;;;;;;;2.13;0.60;;;16.10;99.90;;;;;;5014670;28;20022;-74
2023/03/24 12:52:28;;;;;;;0.80;0.40;;;16.20;99.90;;;;;;5014413;28;20025;-75
2023/03/24 12:55:03;;;;;;;1.55;0.50;;;16.20;99.90;;;;;;5011537;28;20108;-75
2023/03/24 12:57:36;;;;;;;0.45;0.20;;;16.20;99.90;;;;;;5009618;28;20010;-75
2023/03/24 13:00:21;;;;;;;0.50;0.33;;;16.30;99.90;;;;;;4990162;28;20062;-75
2023/03/24 13:02:52;;;;;;;0.85;0.30;;;16.30;99.90;;;;;;5003794;28;20030;-74
2023/03/24 13:05:22;;;;;;;1.05;0.40;;;16.30;99.60;;;;;;5013905;28;20414;-74
2023/03/24 13:07:53;;;;;;;0.93;0.52;;;16.40;99.70;;;;;;5010330;28;20048;-75
2023/03/24 13:10:29;;;;;;;0.30;0.22;;;16.50;99.50;;;;;;4993755;28;20026;-75
2023/03/24 13:13:04;;;;;;;1.23;0.20;;;16.50;99.20;;;;;;5013899;28;20029;-75
2023/03/24 13:15:52;;;;;;;1.02;0.30;;;16.50;98.80;;;;;;5012757;28;20029;-75
2023/03/24 13:18:26;;;;;;;0.32;0.20;;;16.50;98.70;;;;;;5000544;28;20116;-75